Time;durP1;ratioP1;P1;durP2;ratioP2;P2;SDS_P1;SDS_P2;PMS_P1;PMS_P2;Temp;Humidity;BMP_temperature;BMP_pressure;BME280_temperature;BME280_humidity;BME280_pressure;Samples;Min_cycle;Max_cycle;Signal;HPM_P1;HPM_P2
2023/08/20 00:01:23;;;;;;;0.05;0.05;;;;;;;15.64;100.00;101925.44;5052665;28;20376;-52
2023/08/20 00:03:51;;;;;;;0.00;0.00;;;;;;;15.61;100.00;101925.38;5052010;28;20028;-51
2023/08/20 00:06:17;;;;;;;0.00;0.00;;;;;;;15.55;100.00;101933.00;5052390;28;20111;-51
2023/08/20 00:08:42;;;;;;;0.10;0.10;;;;;;;15.53;100.00;101927.78;5052747;28;20117;-51
2023/08/20 00:11:08;;;;;;;0.00;0.00;;;;;;;15.51;100.00;101931.19;5051605;28;20090;-51
2023/08/20 00:13:33;;;;;;;0.00;0.00;;;;;;;15.48;100.00;101926.78;5052370;28;20049;-52
2023/08/20 00:15:59;;;;;;;0.10;0.10;;;;;;;15.49;100.00;101920.72;5052773;28;20762;-52
2023/08/20 00:18:25;;;;;;;0.10;0.10;;;;;;;15.44;100.00;101925.81;5051350;28;20491;-52
2023/08/20 00:20:50;;;;;;;0.00;0.00;;;;;;;15.31;100.00;101915.91;5052580;28;20032;-52
2023/08/20 00:23:16;;;;;;;0.00;0.00;;;;;;;15.30;100.00;101916.78;5052255;28;20029;-52
2023/08/20 00:25:41;;;;;;;0.10;0.10;;;;;;;15.25;100.00;101920.97;5051355;28;20076;-51
2023/08/20 00:28:07;;;;;;;0.00;0.00;;;;;;;15.18;100.00;101921.63;5052401;28;20063;-52
2023/08/20 00:30:32;;;;;;;0.10;0.10;;;;;;;15.25;100.00;101918.34;5051918;28;20021;-51
2023/08/20 00:32:57;;;;;;;0.10;0.10;;;;;;;15.23;100.00;101913.09;5051728;28;20032;-52
2023/08/20 00:35:23;;;;;;;0.10;0.10;;;;;;;15.09;100.00;101919.63;5052139;28;20060;-51
2023/08/20 00:37:48;;;;;;;0.10;0.10;;;;;;;15.08;100.00;101921.34;5052455;28;20074;-52
2023/08/20 00:40:14;;;;;;;0.10;0.10;;;;;;;15.00;100.00;101915.06;5051181;28;20055;-51
2023/08/20 00:42:39;;;;;;;0.10;0.10;;;;;;;15.01;100.00;101936.72;5052256;28;20092;-52
2023/08/20 00:45:05;;;;;;;0.10;0.10;;;;;;;14.96;100.00;101941.75;5052522;28;20096;-51
2023/08/20 00:47:31;;;;;;;0.10;0.10;;;;;;;14.93;100.00;101939.09;5051170;28;20098;-51
2023/08/20 00:49:56;;;;;;;0.10;0.10;;;;;;;15.00;100.00;101950.53;5052386;28;20123;-51
2023/08/20 00:52:22;;;;;;;0.10;0.10;;;;;;;15.08;100.00;101944.72;5051618;28;20037;-52
2023/08/20 00:54:49;;;;;;;0.00;0.00;;;;;;;15.19;100.00;101946.75;5051392;28;20029;-52
2023/08/20 00:57:18;;;;;;;0.10;0.10;;;;;;;15.37;100.00;101954.19;5054969;28;20060;-52
2023/08/20 00:59:44;;;;;;;0.10;0.10;;;;;;;15.44;100.00;101958.69;5055809;28;20380;-51
2023/08/20 01:02:09;;;;;;;0.10;0.10;;;;;;;15.47;100.00;101959.66;5055226;28;20121;-51
2023/08/20 01:04:35;;;;;;;0.10;0.10;;;;;;;15.48;100.00;101971.81;5055551;28;20136;-52
2023/08/20 01:07:19;;;;;;;0.08;0.08;;;;;;;15.55;100.00;101982.38;5055012;28;20072;-51
2023/08/20 01:09:44;;;;;;;0.10;0.10;;;;;;;15.64;100.00;101986.09;5055738;28;20036;-52
2023/08/20 01:12:10;;;;;;;0.00;0.00;;;;;;;15.72;100.00;101982.81;5055576;28;20033;-51
2023/08/20 01:14:35;;;;;;;0.10;0.10;;;;;;;15.84;100.00;101990.09;5054658;28;20272;-51
2023/08/20 01:17:01;;;;;;;0.00;0.00;;;;;;;15.93;100.00;101992.94;5055758;28;20116;-52
2023/08/20 01:19:27;;;;;;;0.10;0.10;;;;;;;15.89;100.00;101993.69;5055157;28;20025;-51
2023/08/20 01:22:29;;;;;;;0.10;0.10;;;;;;;16.00;100.00;101992.25;5054690;28;20094;-51
2023/08/20 01:25:31;;;;;;;0.10;0.10;;;;;;;16.13;100.00;101994.31;5055316;28;20033;-51
2023/08/20 01:28:07;;;;;;;0.05;0.05;;;;;;;16.19;100.00;101987.50;5055342;28;20040;-52
2023/08/20 01:30:34;;;;;;;0.17;0.10;;;;;;;16.28;100.00;101982.53;5054837;28;20103;-52
2023/08/20 01:32:59;;;;;;;0.10;0.10;;;;;;;16.34;100.00;101987.00;5055206;28;20507;-52
2023/08/20 01:35:26;;;;;;;0.10;0.10;;;;;;;16.37;100.00;101980.16;5054182;28;20036;-51
2023/08/20 01:37:52;;;;;;;0.03;0.03;;;;;;;16.39;100.00;101977.59;5055146;28;20544;-52
2023/08/20 01:40:17;;;;;;;0.03;0.03;;;;;;;16.30;100.00;101975.66;5054923;28;20108;-52
2023/08/20 01:42:42;;;;;;;0.10;0.10;;;;;;;16.27;100.00;101981.66;5054264;28;20031;-52
2023/08/20 01:45:08;;;;;;;0.10;0.10;;;;;;;16.24;100.00;101985.91;5054967;28;20029;-51
2023/08/20 01:47:34;;;;;;;0.10;0.10;;;;;;;16.31;100.00;101987.81;5054557;28;20430;-52
2023/08/20 01:49:59;;;;;;;0.10;0.10;;;;;;;16.38;100.00;101986.22;5054267;28;20040;-51
2023/08/20 01:52:25;;;;;;;0.10;0.10;;;;;;;16.43;100.00;101987.22;5054575;28;20033;-52
2023/08/20 01:54:51;;;;;;;0.10;0.10;;;;;;;16.49;100.00;101987.38;5054927;28;20021;-51
2023/08/20 01:57:16;;;;;;;0.00;0.00;;;;;;;16.54;100.00;101995.28;5053684;28;20053;-51
2023/08/20 01:59:42;;;;;;;0.05;0.05;;;;;;;16.59;100.00;102002.34;5054786;28;20492;-53
2023/08/20 02:02:08;;;;;;;0.00;0.00;;;;;;;16.58;100.00;102004.94;5054927;28;20421;-51
2023/08/20 02:04:33;;;;;;;0.00;0.00;;;;;;;16.55;100.00;102005.75;5053573;28;20059;-52
2023/08/20 02:06:59;;;;;;;0.10;0.10;;;;;;;16.58;100.00;102015.34;5054136;28;20072;-52
2023/08/20 02:09:24;;;;;;;0.10;0.10;;;;;;;16.55;100.00;102012.66;5054401;28;20033;-52
2023/08/20 02:11:50;;;;;;;0.00;0.00;;;;;;;16.52;100.00;102025.59;5053730;28;20025;-52
2023/08/20 02:14:15;;;;;;;0.00;0.00;;;;;;;16.51;100.00;102022.09;5054031;28;20024;-51
2023/08/20 02:16:41;;;;;;;0.10;0.10;;;;;;;16.52;100.00;102028.22;5054572;28;20033;-52
2023/08/20 02:19:06;;;;;;;0.10;0.10;;;;;;;16.56;100.00;102022.22;5053589;28;20068;-51
2023/08/20 02:21:32;;;;;;;0.10;0.10;;;;;;;16.52;100.00;102017.78;5054159;28;20037;-52
2023/08/20 02:23:57;;;;;;;0.10;0.10;;;;;;;16.53;100.00;102014.34;5054414;28;20053;-52
2023/08/20 02:26:23;;;;;;;0.10;0.10;;;;;;;16.49;100.00;102018.59;5053051;28;20048;-52
2023/08/20 02:28:48;;;;;;;0.10;0.10;;;;;;;16.39;100.00;102014.88;5054065;28;20108;-52
2023/08/20 02:31:13;;;;;;;0.00;0.00;;;;;;;16.36;100.00;102014.81;5053696;28;20040;-52
2023/08/20 02:33:38;;;;;;;0.00;0.00;;;;;;;16.32;100.00;102014.69;5053346;28;20033;-52
2023/08/20 02:36:04;;;;;;;0.00;0.00;;;;;;;16.24;100.00;102017.09;5054132;28;20020;-52
2023/08/20 02:38:30;;;;;;;0.00;0.00;;;;;;;16.14;100.00;102023.81;5052970;28;20036;-52
2023/08/20 02:40:55;;;;;;;0.00;0.00;;;;;;;16.07;100.00;102014.94;5054184;28;20029;-52
2023/08/20 02:43:21;;;;;;;0.10;0.10;;;;;;;16.06;100.00;102013.22;5053653;28;20035;-52
2023/08/20 02:45:46;;;;;;;0.10;0.10;;;;;;;16.00;100.00;102012.16;5053292;28;20390;-52
2023/08/20 02:48:13;;;;;;;0.05;0.05;;;;;;;15.86;100.00;102007.50;5053789;28;20423;-52
2023/08/20 02:50:38;;;;;;;0.10;0.10;;;;;;;15.71;100.00;102000.16;5053633;28;20388;-53
2023/08/20 02:53:04;;;;;;;0.10;0.10;;;;;;;15.61;100.00;102006.81;5052957;28;20024;-51
2023/08/20 02:55:30;;;;;;;0.00;0.00;;;;;;;15.52;100.00;102005.66;5053539;28;20033;-52
2023/08/20 02:57:55;;;;;;;0.10;0.10;;;;;;;15.46;100.00;102007.25;5053703;28;20087;-52
2023/08/20 03:00:21;;;;;;;0.10;0.10;;;;;;;15.51;100.00;101998.72;5052414;28;20025;-52
2023/08/20 03:02:46;;;;;;;0.10;0.10;;;;;;;15.43;100.00;101999.38;5053484;28;20037;-52
2023/08/20 03:05:11;;;;;;;0.10;0.10;;;;;;;15.30;100.00;101999.88;5053306;28;20112;-50
2023/08/20 03:07:36;;;;;;;0.10;0.10;;;;;;;15.31;100.00;101996.41;5052699;28;20464;-51
2023/08/20 03:10:02;;;;;;;0.00;0.00;;;;;;;15.17;100.00;102001.25;5053473;28;20028;-52
2023/08/20 03:12:28;;;;;;;0.10;0.10;;;;;;;15.21;100.00;101992.69;5052954;28;20029;-52
2023/08/20 03:14:54;;;;;;;0.10;0.10;;;;;;;15.05;100.00;101996.53;5052729;28;20025;-52
2023/08/20 03:17:19;;;;;;;0.03;0.03;;;;;;;15.10;100.00;101997.56;5052902;28;20024;-51
2023/08/20 03:19:56;;;;;;;0.10;0.10;;;;;;;14.99;100.00;101998.97;5052428;28;20021;-52
2023/08/20 03:22:22;;;;;;;0.10;0.10;;;;;;;14.91;100.00;102003.94;5052195;28;20087;-51
2023/08/20 03:24:47;;;;;;;0.10;0.10;;;;;;;14.88;100.00;101998.63;5053076;28;20085;-52
2023/08/20 03:27:13;;;;;;;0.10;0.10;;;;;;;14.71;100.00;101994.66;5052729;28;20412;-51
2023/08/20 03:29:38;;;;;;;0.10;0.10;;;;;;;14.78;100.00;101994.00;5052504;28;20021;-52
2023/08/20 03:32:04;;;;;;;0.10;0.10;;;;;;;14.67;100.00;101991.09;5052924;28;20602;-52
2023/08/20 03:34:29;;;;;;;0.05;0.05;;;;;;;14.62;100.00;101992.63;5053013;28;20527;-51
2023/08/20 03:36:54;;;;;;;0.10;0.10;;;;;;;14.58;100.00;101993.38;5052354;28;20432;-52
2023/08/20 03:39:20;;;;;;;0.10;0.10;;;;;;;14.52;100.00;101987.97;5052714;28;20091;-51
2023/08/20 03:41:45;;;;;;;0.10;0.10;;;;;;;14.70;100.00;101983.38;5052091;28;20426;-51
2023/08/20 03:44:10;;;;;;;0.10;0.10;;;;;;;14.69;100.00;101989.41;5053077;28;20103;-52
2023/08/20 03:46:36;;;;;;;0.10;0.10;;;;;;;14.75;100.00;101991.31;5053084;28;20027;-52
2023/08/20 03:49:01;;;;;;;0.10;0.10;;;;;;;14.74;100.00;101994.75;5052236;28;20143;-52
2023/08/20 03:51:26;;;;;;;0.10;0.10;;;;;;;14.62;100.00;102000.41;5052515;28;20025;-51
2023/08/20 03:53:52;;;;;;;0.10;0.10;;;;;;;14.60;100.00;101992.59;5052723;28;20099;-52
2023/08/20 03:56:17;;;;;;;0.10;0.10;;;;;;;14.47;100.00;101996.50;5051545;28;20032;-52
2023/08/20 03:58:42;;;;;;;0.10;0.10;;;;;;;14.23;100.00;102016.44;5052830;28;20025;-51
2023/08/20 04:01:08;;;;;;;0.10;0.10;;;;;;;14.17;100.00;102009.34;5052871;28;20029;-52
2023/08/20 04:03:33;;;;;;;0.10;0.10;;;;;;;14.11;100.00;102012.63;5052194;28;20032;-51
2023/08/20 04:05:58;;;;;;;0.10;0.10;;;;;;;14.04;100.00;102009.78;5052668;28;20068;-50
2023/08/20 04:08:23;;;;;;;0.10;0.10;;;;;;;13.94;100.00;102019.81;5052268;28;20021;-51
2023/08/20 04:10:49;;;;;;;0.10;0.10;;;;;;;14.03;100.00;102020.97;5051618;28;20068;-52
2023/08/20 04:13:16;;;;;;;0.10;0.10;;;;;;;13.97;100.00;102019.06;5052354;28;20029;-52
2023/08/20 04:15:41;;;;;;;0.10;0.10;;;;;;;13.96;100.00;102030.25;5052493;28;20404;-51
2023/08/20 04:18:06;;;;;;;0.10;0.10;;;;;;;13.93;100.00;102030.13;5051831;28;20480;-52
2023/08/20 04:20:32;;;;;;;0.03;0.03;;;;;;;13.80;100.00;102032.28;5052454;28;20064;-52
2023/08/20 04:22:57;;;;;;;0.10;0.10;;;;;;;13.88;100.00;102026.47;5052361;28;20029;-51
2023/08/20 04:25:23;;;;;;;0.10;0.10;;;;;;;13.89;100.00;102036.03;5051130;28;20037;-51
2023/08/20 04:27:48;;;;;;;0.10;0.10;;;;;;;13.81;100.00;102031.47;5052358;28;20025;-48
2023/08/20 04:30:13;;;;;;;0.10;0.10;;;;;;;13.77;100.00;102034.75;5053997;28;20077;-52
2023/08/20 04:32:39;;;;;;;0.10;0.10;;;;;;;13.79;100.00;102025.34;5055649;28;20028;-52
2023/08/20 04:35:05;;;;;;;0.10;0.10;;;;;;;13.76;100.00;102033.03;5056448;28;20025;-52
2023/08/20 04:37:30;;;;;;;0.10;0.10;;;;;;;13.76;100.00;102033.03;5055896;28;20074;-47
2023/08/20 04:39:55;;;;;;;0.10;0.10;;;;;;;13.74;100.00;102032.06;5055356;28;20037;-47
2023/08/20 04:42:21;;;;;;;0.10;0.10;;;;;;;13.70;100.00;102026.72;5055743;28;20021;-51
2023/08/20 04:44:46;;;;;;;0.10;0.10;;;;;;;13.75;100.00;102018.28;5056226;28;20059;-52
2023/08/20 04:47:15;;;;;;;0.10;0.10;;;;;;;13.92;100.00;102026.66;5055117;28;20029;-50
2023/08/20 04:49:40;;;;;;;0.10;0.10;;;;;;;14.05;100.00;102022.78;5056243;28;20112;-51
2023/08/20 04:52:05;;;;;;;0.10;0.10;;;;;;;14.12;100.00;102029.91;5055263;28;20070;-47
2023/08/20 04:54:31;;;;;;;0.10;0.10;;;;;;;14.09;100.00;102029.81;5055660;28;20123;-52
2023/08/20 04:56:56;;;;;;;0.10;0.10;;;;;;;14.02;100.00;102033.06;5056072;28;20159;-48
2023/08/20 04:59:22;;;;;;;0.10;0.10;;;;;;;13.97;100.00;102030.28;5055095;28;20132;-47
2023/08/20 05:01:47;;;;;;;0.10;0.10;;;;;;;13.97;100.00;102040.66;5055883;28;20468;-48
2023/08/20 05:04:13;;;;;;;0.10;0.10;;;;;;;14.17;100.00;102024.91;5055536;28;20021;-50
2023/08/20 05:06:38;;;;;;;0.13;0.13;;;;;;;14.03;100.00;102031.31;5054913;28;20106;-52
2023/08/20 05:09:04;;;;;;;0.10;0.10;;;;;;;14.12;100.00;102035.09;5055673;28;20027;-47
2023/08/20 05:11:32;;;;;;;0.10;0.10;;;;;;;14.09;100.00;102040.19;5055240;28;20040;-47
2023/08/20 05:13:58;;;;;;;0.10;0.10;;;;;;;14.07;100.00;102036.69;5055030;28;20029;-51
2023/08/20 05:16:23;;;;;;;0.10;0.10;;;;;;;14.12;100.00;102044.59;5055368;28;20506;-52
2023/08/20 05:18:48;;;;;;;0.10;0.10;;;;;;;14.21;100.00;102039.72;5055549;28;20437;-52
2023/08/20 05:21:14;;;;;;;0.10;0.10;;;;;;;14.16;100.00;102042.19;5054345;28;20021;-51
2023/08/20 05:23:40;;;;;;;0.10;0.10;;;;;;;14.02;100.00;102048.59;5055655;28;20051;-52
2023/08/20 05:26:07;;;;;;;0.10;0.10;;;;;;;14.00;100.00;102050.25;5055255;28;20049;-51
2023/08/20 05:28:32;;;;;;;0.10;0.10;;;;;;;13.98;100.00;102062.25;5054266;28;20029;-49
2023/08/20 05:30:58;;;;;;;0.10;0.10;;;;;;;13.98;100.00;102064.84;5055286;28;20029;-48
2023/08/20 05:33:23;;;;;;;0.10;0.10;;;;;;;14.03;100.00;102065.88;5055050;28;20043;-49
2023/08/20 05:35:49;;;;;;;0.10;0.10;;;;;;;14.11;100.00;102069.66;5054522;28;20033;-52
2023/08/20 05:38:14;;;;;;;0.10;0.10;;;;;;;14.14;100.00;102068.88;5054829;28;20028;-48
2023/08/20 05:40:40;;;;;;;0.00;0.00;;;;;;;14.17;100.00;102058.59;5055212;28;20029;-51
2023/08/20 05:43:05;;;;;;;0.10;0.10;;;;;;;14.23;100.00;102060.50;5053793;28;20118;-52
2023/08/20 05:45:30;;;;;;;0.10;0.10;;;;;;;14.27;100.00;102059.81;5054863;28;20188;-52
2023/08/20 05:47:56;;;;;;;0.10;0.10;;;;;;;14.36;100.00;102059.22;5055083;28;20068;-51
2023/08/20 05:50:21;;;;;;;0.10;0.10;;;;;;;14.47;100.00;102068.25;5053791;28;20358;-49
2023/08/20 05:52:46;;;;;;;0.10;0.10;;;;;;;14.55;100.00;102071.09;5054772;28;20029;-52
2023/08/20 05:55:12;;;;;;;0.10;0.10;;;;;;;14.62;100.00;102067.88;5054504;28;20110;-48
2023/08/20 05:57:37;;;;;;;0.10;0.10;;;;;;;14.72;100.00;102071.66;5054228;28;20052;-51
2023/08/20 06:00:04;;;;;;;0.10;0.10;;;;;;;14.83;100.00;102067.69;5054793;28;20392;-51
2023/08/20 06:02:30;;;;;;;0.10;0.10;;;;;;;14.93;100.00;102068.88;5053791;28;20048;-48
2023/08/20 06:04:55;;;;;;;0.10;0.10;;;;;;;15.06;100.00;102071.00;5054684;28;20052;-52
2023/08/20 06:07:20;;;;;;;0.10;0.10;;;;;;;15.19;100.00;102066.22;5054386;28;20021;-48
2023/08/20 06:09:46;;;;;;;0.10;0.10;;;;;;;15.29;100.00;102068.25;5053613;28;20051;-51
2023/08/20 06:12:11;;;;;;;0.10;0.10;;;;;;;15.36;100.00;102057.19;5053992;28;20029;-48
2023/08/20 06:14:36;;;;;;;0.10;0.10;;;;;;;15.46;100.00;102069.59;5054673;28;20024;-47
2023/08/20 06:17:02;;;;;;;0.10;0.10;;;;;;;15.57;100.00;102064.72;5053640;28;20491;-52
2023/08/20 06:19:29;;;;;;;0.10;0.10;;;;;;;15.70;100.00;102065.06;5054108;28;20028;-52
2023/08/20 06:21:54;;;;;;;0.10;0.10;;;;;;;15.79;100.00;102061.00;5054324;28;20025;-49
2023/08/20 06:24:19;;;;;;;0.10;0.10;;;;;;;15.90;100.00;102065.66;5053102;28;20024;-47
2023/08/20 06:26:45;;;;;;;0.10;0.10;;;;;;;16.04;100.00;102066.91;5054038;28;20147;-52
2023/08/20 06:29:10;;;;;;;0.10;0.10;;;;;;;16.04;100.00;102063.44;5054431;28;20029;-51
2023/08/20 06:31:35;;;;;;;0.10;0.10;;;;;;;16.18;100.00;102067.25;5053105;28;20029;-52
2023/08/20 06:34:01;;;;;;;0.10;0.10;;;;;;;16.28;100.00;102070.97;5054195;28;20024;-52
2023/08/20 06:36:26;;;;;;;0.00;0.00;;;;;;;16.39;100.00;102069.53;5053722;28;20365;-47
2023/08/20 06:38:51;;;;;;;0.10;0.10;;;;;;;16.56;100.00;102071.66;5053078;28;20380;-50
2023/08/20 06:41:17;;;;;;;0.10;0.10;;;;;;;16.65;100.00;102082.31;5053707;28;20423;-52
2023/08/20 06:43:43;;;;;;;0.10;0.10;;;;;;;16.74;100.00;102082.50;5053921;28;20357;-51
2023/08/20 06:46:09;;;;;;;0.10;0.10;;;;;;;16.83;100.00;102075.78;5053286;28;20021;-52
2023/08/20 06:48:34;;;;;;;0.00;0.00;;;;;;;16.93;100.00;102076.06;5053651;28;20029;-51
2023/08/20 06:51:11;;;;;;;0.00;0.00;;;;;;;17.05;100.00;102080.66;5053601;28;20036;-50
2023/08/20 06:53:37;;;;;;;0.10;0.10;;;;;;;17.15;100.00;102073.06;5051879;28;20391;-52
2023/08/20 06:56:02;;;;;;;0.10;0.10;;;;;;;17.26;100.00;102084.59;5053703;28;20028;-52
2023/08/20 06:58:27;;;;;;;0.10;0.10;;;;;;;17.37;100.00;102080.50;5053232;28;20032;-47
2023/08/20 07:00:53;;;;;;;0.00;0.00;;;;;;;17.39;100.00;102071.00;5053009;28;20086;-49
2023/08/20 07:03:18;;;;;;;0.00;0.00;;;;;;;17.47;100.00;102076.34;5053393;28;20036;-48
2023/08/20 07:05:44;;;;;;;0.00;0.00;;;;;;;17.55;100.00;102073.91;5052676;28;20074;-51
2023/08/20 07:08:09;;;;;;;0.00;0.00;;;;;;;17.61;100.00;102084.44;5053437;28;20046;-51
2023/08/20 07:10:35;;;;;;;0.10;0.10;;;;;;;17.76;100.00;102089.09;5052931;28;20029;-53
2023/08/20 07:13:00;;;;;;;0.00;0.00;;;;;;;17.77;100.00;102081.28;5052424;28;20152;-52
2023/08/20 07:15:25;;;;;;;0.00;0.00;;;;;;;17.85;100.00;102088.41;5053063;28;20104;-52
2023/08/20 07:17:51;;;;;;;0.10;0.10;;;;;;;18.00;100.00;102096.56;5053315;28;20487;-51
2023/08/20 07:20:16;;;;;;;0.05;0.05;;;;;;;18.15;100.00;102090.72;5052265;28;20028;-52
2023/08/20 07:22:42;;;;;;;0.00;0.00;;;;;;;18.27;100.00;102098.78;5053151;28;20032;-50
2023/08/20 07:25:08;;;;;;;0.00;0.00;;;;;;;18.38;100.00;102090.25;5053285;28;20194;-51
2023/08/20 07:27:33;;;;;;;0.00;0.00;;;;;;;18.54;100.00;102091.38;5052026;28;20047;-52
2023/08/20 07:29:58;;;;;;;0.00;0.00;;;;;;;18.61;100.00;102088.03;5053028;28;20036;-51
2023/08/20 07:32:24;;;;;;;0.00;0.00;;;;;;;18.67;100.00;102092.47;5052820;28;20025;-51
2023/08/20 07:34:49;;;;;;;0.08;0.08;;;;;;;18.81;100.00;102090.97;5052350;28;20049;-52
2023/08/20 07:37:14;;;;;;;0.00;0.00;;;;;;;18.88;100.00;102092.81;5052516;28;20074;-47
2023/08/20 07:39:40;;;;;;;0.00;0.00;;;;;;;18.91;100.00;102095.50;5053138;28;20027;-52
2023/08/20 07:42:06;;;;;;;0.00;0.00;;;;;;;19.03;100.00;102093.91;5052368;28;20017;-48
2023/08/20 07:44:31;;;;;;;0.00;0.00;;;;;;;19.11;100.00;102099.25;5052641;28;20532;-48
2023/08/20 07:46:57;;;;;;;0.00;0.00;;;;;;;19.07;100.00;102099.22;5052985;28;20028;-49
2023/08/20 07:49:22;;;;;;;0.00;0.00;;;;;;;19.19;100.00;102108.09;5051743;28;20025;-51
2023/08/20 07:51:48;;;;;;;0.00;0.00;;;;;;;19.29;100.00;102106.47;5052719;28;20545;-48
2023/08/20 07:54:14;;;;;;;0.00;0.00;;;;;;;19.52;100.00;102112.00;5052683;28;20029;-52
2023/08/20 07:56:39;;;;;;;0.00;0.00;;;;;;;19.70;100.00;102116.56;5052101;28;20028;-48
2023/08/20 07:59:05;;;;;;;0.00;0.00;;;;;;;19.81;100.00;102116.72;5053029;28;20108;-52
2023/08/20 08:01:30;;;;;;;0.00;0.00;;;;;;;19.90;100.00;102115.09;5052420;28;20017;-52
2023/08/20 08:03:56;;;;;;;0.00;0.00;;;;;;;20.04;100.00;102114.38;5051878;28;20084;-53
2023/08/20 08:06:23;;;;;;;0.05;0.05;;;;;;;20.17;100.00;102115.41;5052000;28;20465;-52
2023/08/20 08:08:49;;;;;;;0.00;0.00;;;;;;;20.22;100.00;102111.09;5052549;28;20404;-52
2023/08/20 08:11:14;;;;;;;0.00;0.00;;;;;;;20.29;98.26;102112.00;5051303;28;20025;-48
2023/08/20 08:13:39;;;;;;;0.00;0.00;;;;;;;20.35;100.00;102118.19;5052612;28;20025;-48
2023/08/20 08:16:05;;;;;;;0.00;0.00;;;;;;;20.38;100.00;102115.56;5051790;28;20060;-52
2023/08/20 08:18:30;;;;;;;0.00;0.00;;;;;;;20.42;100.00;102120.84;5052297;28;20036;-52
2023/08/20 08:20:55;;;;;;;0.00;0.00;;;;;;;20.62;100.00;102126.25;5052473;28;20056;-47
2023/08/20 08:23:20;;;;;;;0.00;0.00;;;;;;;20.60;100.00;102123.63;5051588;28;20039;-51
2023/08/20 08:25:46;;;;;;;0.00;0.00;;;;;;;20.76;100.00;102129.00;5052351;28;20077;-53
2023/08/20 08:28:11;;;;;;;0.00;0.00;;;;;;;20.85;96.21;102129.09;5052269;28;20033;-48
2023/08/20 08:30:38;;;;;;;0.08;0.08;;;;;;;21.06;99.38;102133.63;5051579;28;20013;-52
2023/08/20 08:33:04;;;;;;;0.00;0.00;;;;;;;21.05;95.83;102127.47;5052463;28;20025;-51
2023/08/20 08:35:29;;;;;;;0.00;0.00;;;;;;;21.15;96.32;102127.53;5052005;28;20025;-48
2023/08/20 08:37:55;;;;;;;0.00;0.00;;;;;;;21.43;93.23;102133.78;5051780;28;20056;-51
2023/08/20 08:40:21;;;;;;;0.00;0.00;;;;;;;21.54;86.77;102133.88;5051981;28;20052;-51
2023/08/20 08:42:49;;;;;;;0.00;0.00;;;;;;;21.66;89.84;102139.19;5052225;28;20380;-48
2023/08/20 08:45:17;;;;;;;0.00;0.00;;;;;;;21.82;89.58;102136.63;5051151;28;20499;-52
2023/08/20 08:47:43;;;;;;;0.00;0.00;;;;;;;21.82;95.36;102134.00;5052238;28;20036;-52
2023/08/20 08:50:09;;;;;;;0.00;0.00;;;;;;;22.02;90.01;102140.16;5052115;28;20033;-49
2023/08/20 08:52:37;;;;;;;0.00;0.00;;;;;;;22.09;86.69;102130.59;5050998;28;20476;-48
2023/08/20 08:55:05;;;;;;;0.00;0.00;;;;;;;22.17;87.44;102138.47;5051986;28;20361;-47
2023/08/20 08:57:31;;;;;;;0.00;0.00;;;;;;;22.15;86.40;102140.22;5051764;28;20503;-52
2023/08/20 08:59:56;;;;;;;0.00;0.00;;;;;;;22.35;85.82;102143.75;5051559;28;20033;-52
2023/08/20 09:02:23;;;;;;;0.00;0.00;;;;;;;22.40;83.88;102135.91;5051823;28;20087;-52
2023/08/20 09:04:48;;;;;;;0.00;0.00;;;;;;;22.49;81.16;102145.53;5051210;28;20032;-51
2023/08/20 09:07:15;;;;;;;0.00;0.00;;;;;;;22.49;80.23;102145.53;5051194;28;20029;-53
2023/08/20 09:09:44;;;;;;;0.00;0.00;;;;;;;22.61;84.58;102142.91;5052340;28;20040;-52
2023/08/20 09:12:18;;;;;;;0.00;0.00;;;;;;;22.74;80.22;102145.56;5052020;28;20537;-52
2023/08/20 09:14:49;;;;;;;0.00;0.00;;;;;;;22.78;81.30;102142.03;5052084;28;20033;-52
2023/08/20 09:17:15;;;;;;;0.00;0.00;;;;;;;23.02;81.42;102147.25;5053218;28;20025;-49
2023/08/20 09:19:44;;;;;;;0.00;0.00;;;;;;;23.22;81.11;102143.75;5055013;28;20036;-52
2023/08/20 09:22:11;;;;;;;0.00;0.00;;;;;;;23.30;75.64;102147.22;5055408;28;20396;-48
2023/08/20 09:24:42;;;;;;;0.00;0.00;;;;;;;23.52;76.55;102149.78;5055526;28;20108;-52
2023/08/20 09:27:07;;;;;;;0.00;0.00;;;;;;;23.90;74.01;102148.78;5054500;28;20045;-52
2023/08/20 09:29:43;;;;;;;0.00;0.00;;;;;;;23.86;69.42;102154.91;5055129;28;20487;-47
2023/08/20 09:32:13;;;;;;;0.00;0.00;;;;;;;24.13;68.40;102147.75;5055468;28;20029;-51
2023/08/20 09:34:41;;;;;;;0.00;0.00;;;;;;;24.18;66.34;102148.59;5054591;28;20086;-52
2023/08/20 09:37:14;;;;;;;0.00;0.00;;;;;;;24.31;66.50;102152.03;5055357;28;20035;-47
2023/08/20 09:39:40;;;;;;;0.00;0.00;;;;;;;24.44;61.54;102155.44;5055209;28;20037;-53
2023/08/20 09:42:06;;;;;;;0.00;0.00;;;;;;;24.43;59.06;102153.72;5054282;28;20021;-52
2023/08/20 09:44:38;;;;;;;0.00;0.00;;;;;;;24.68;61.17;102158.81;5054719;28;20508;-52
2023/08/20 09:47:07;;;;;;;0.00;0.00;;;;;;;25.19;61.79;102153.94;5055283;28;20294;-49
2023/08/20 09:49:37;;;;;;;0.00;0.00;;;;;;;25.07;53.17;102157.56;5053999;28;20115;-52
2023/08/20 09:52:10;;;;;;;0.00;0.00;;;;;;;25.16;51.30;102151.31;5055024;28;20033;-53
2023/08/20 09:54:48;;;;;;;0.00;0.00;;;;;;;25.30;53.45;102159.06;5053825;28;20108;-52
2023/08/20 09:57:26;;;;;;;0.00;0.00;;;;;;;25.28;53.95;102156.47;5054483;28;20519;-52
2023/08/20 09:59:52;;;;;;;0.00;0.00;;;;;;;25.99;51.46;102160.03;5055038;28;20025;-52
2023/08/20 10:02:19;;;;;;;0.00;0.00;;;;;;;26.39;51.84;102158.56;5053651;28;20435;-53
2023/08/20 10:04:44;;;;;;;0.00;0.00;;;;;;;26.79;44.63;102152.63;5054750;28;20057;-52
2023/08/20 10:07:11;;;;;;;0.00;0.00;;;;;;;27.03;45.91;102161.03;5054500;28;20059;-53
2023/08/20 10:09:39;;;;;;;0.00;0.00;;;;;;;27.39;43.51;102154.16;5053990;28;20044;-53
2023/08/20 10:12:05;;;;;;;0.00;0.00;;;;;;;27.85;41.74;102154.97;5054728;28;20044;-52
2023/08/20 10:14:30;;;;;;;0.00;0.00;;;;;;;27.99;41.45;102159.97;5054312;28;20033;-53
2023/08/20 10:16:56;;;;;;;0.00;0.00;;;;;;;28.44;41.27;102166.88;5053685;28;20060;-53
2023/08/20 10:19:23;;;;;;;0.00;0.00;;;;;;;29.58;40.13;102162.13;5054103;28;20025;-53
2023/08/20 10:21:51;;;;;;;;;;;;;;;30.29;39.01;102160.84;5054796;28;20148;-51
2023/08/20 10:24:20;;;;;;;0.00;0.00;;;;;;;29.81;36.34;102159.66;5053460;28;19919;-53
2023/08/20 10:26:48;;;;;;;0.00;0.00;;;;;;;29.94;35.59;102164.59;5054063;28;20190;-53
2023/08/20 10:29:39;;;;;;;0.00;0.00;;;;;;;30.30;39.01;102164.34;5053662;28;20051;-53
2023/08/20 10:32:14;;;;;;;0.00;0.00;;;;;;;31.00;36.81;102163.75;5053999;28;20029;-53
2023/08/20 10:34:49;;;;;;;0.00;0.00;;;;;;;31.88;35.30;102172.09;5054050;28;20026;-53
2023/08/20 10:37:15;;;;;;;0.00;0.00;;;;;;;31.83;32.83;102167.81;5053026;28;20025;-53
2023/08/20 10:39:45;;;;;;;0.00;0.00;;;;;;;31.92;31.85;102157.72;5054242;28;20051;-53
2023/08/20 10:42:25;;;;;;;0.10;0.00;;;;;;;32.85;31.84;102160.13;5054031;28;20032;-52
2023/08/20 10:45:00;;;;;;;0.00;0.00;;;;;;;33.44;32.60;102162.84;5053204;28;20105;-53
2023/08/20 10:47:35;;;;;;;0.00;0.00;;;;;;;33.15;29.44;102165.88;5053484;28;20468;-53
2023/08/20 10:50:01;;;;;;;0.00;0.00;;;;;;;33.09;30.16;102157.28;5054148;28;20022;-53
2023/08/20 10:52:27;;;;;;;0.00;0.00;;;;;;;34.11;30.13;102169.50;5053108;28;20108;-52
2023/08/20 10:54:53;;;;;;;0.00;0.00;;;;;;;34.19;28.82;102166.44;5053896;28;20120;-53
2023/08/20 10:57:21;;;;;;;0.00;0.00;;;;;;;33.76;29.98;102169.34;5053305;28;20021;-55
2023/08/20 11:00:01;;;;;;;0.00;0.00;;;;;;;33.91;30.87;102166.94;5052785;28;20099;-54
2023/08/20 11:02:27;;;;;;;0.00;0.00;;;;;;;33.75;28.80;102167.63;5053375;28;20487;-54
2023/08/20 11:04:53;;;;;;;0.00;0.00;;;;;;;34.27;28.28;102163.38;5052863;28;20029;-51
2023/08/20 11:07:20;;;;;;;0.00;0.00;;;;;;;35.07;30.57;102170.00;5053385;28;20070;-51
2023/08/20 11:09:46;;;;;;;0.00;0.00;;;;;;;35.05;27.63;102166.50;5053360;28;20472;-52
2023/08/20 11:12:14;;;;;;;0.00;0.00;;;;;;;34.86;28.10;102168.44;5052172;28;20043;-51
2023/08/20 11:14:40;;;;;;;0.00;0.00;;;;;;;34.99;28.28;102165.97;5053356;28;20032;-51
2023/08/20 11:17:07;;;;;;;0.00;0.00;;;;;;;35.39;29.62;102159.38;5053409;28;20029;-51